Bob Hope Airport
KBUR : rendu visible

Aérodrome :











RETROUVEZ-NOUS SUR...

 
LOGIN :

S'inscrire | Disclaimer

   EN    FR    IT 

 









Légende :    VFR   VFR Marginal   IFR   IFR Intensif   IFR Très Intensif
Visi : 
Plafond : 
>= 8 km
>= 3000ft
5 à 8 km
1000 à 3000 ft
1500m à 5 km
500 à 1000 ft
800 à 1500m
200 à 500 ft
< 800m
< 200 ft
Symboles :   Orages  Brouillard  Fortes neiges  Fortes précipitations  Vent > 20 kt






- Altitude de l'aérodrome : 778 ft
- Code IATA : BUR


KBUR - Bob Hope

DERNIER METAR :
  • 250753Z 12005KT 10SM CLR 17/13 A2998 RMK AO2 SLP140 T01720133 402670156 $

METARs EXPIRÉS :
  • 250653Z 12005KT 10SM CLR 17/13 A2998 RMK AO2 SLP141 T01720128 $
  • 250553Z 10005KT 10SM CLR 18/13 A2999 RMK AO2 SLP144 T01780128 10256 20178 53010 $

TAF KBUR
Valide du 25 à 06h jusqu'au 26 à 06h UTC


250527Z 2506/2606 13005KT P6SM SKC
FM252000 18010KT P6SM SKC
FM260400 13006KT P6SM SKC
FIR KZLA / Amérique du Nord



MET'MAP, la Météo Aéronautique d'un coup d'oeil ! - Copyright ORBIFLY Décembre 2007 - Disclaimer

ORBIFLY MET'MAP TEAM :

Programmation & Développement : Alexandra Zaïnal
Sur une idée originale de : Baudouin d'Aumeries
Assistance à la programmation : Marc-Olivier Méhu
Soutien technique & logistique : Manuel Goepfert

Contact : metmap@orbifly.com




SOURCES & CREDITS :

   NOAA       Earth
Advisory